sensor_id;sensor_type;location;lat;lon;timestamp;P1;durP1;ratioP1;P2;durP2;ratioP2
9834;SDS011;4956;50.996;13.716;2022-10-22T00:00:09;4.88;;;3.42;;
9834;SDS011;4956;50.996;13.716;2022-10-22T00:03:31;4.63;;;3.55;;
9834;SDS011;4956;50.996;13.716;2022-10-22T00:06:52;4.13;;;3.40;;
9834;SDS011;4956;50.996;13.716;2022-10-22T00:10:12;3.85;;;3.10;;
9834;SDS011;4956;50.996;13.716;2022-10-22T00:13:33;28.45;;;19.85;;
9834;SDS011;4956;50.996;13.716;2022-10-22T00:16:53;30.23;;;20.73;;
9834;SDS011;4956;50.996;13.716;2022-10-22T00:20:15;29.08;;;20.45;;
9834;SDS011;4956;50.996;13.716;2022-10-22T00:23:35;29.83;;;20.50;;
9834;SDS011;4956;50.996;13.716;2022-10-22T00:26:59;29.23;;;19.80;;
9834;SDS011;4956;50.996;13.716;2022-10-22T00:30:20;26.00;;;18.30;;
9834;SDS011;4956;50.996;13.716;2022-10-22T00:33:40;26.70;;;17.83;;
9834;SDS011;4956;50.996;13.716;2022-10-22T00:37:01;24.85;;;17.63;;
9834;SDS011;4956;50.996;13.716;2022-10-22T00:40:21;25.42;;;18.13;;
9834;SDS011;4956;50.996;13.716;2022-10-22T00:43:58;24.52;;;18.27;;
9834;SDS011;4956;50.996;13.716;2022-10-22T00:47:23;28.08;;;18.60;;
9834;SDS011;4956;50.996;13.716;2022-10-22T00:51:00;25.70;;;18.42;;
9834;SDS011;4956;50.996;13.716;2022-10-22T00:54:22;31.08;;;19.85;;
9834;SDS011;4956;50.996;13.716;2022-10-22T00:57:43;27.52;;;18.48;;
9834;SDS011;4956;50.996;13.716;2022-10-22T01:01:03;25.05;;;17.10;;
9834;SDS011;4956;50.996;13.716;2022-10-22T01:04:25;23.42;;;16.63;;
9834;SDS011;4956;50.996;13.716;2022-10-22T01:07:46;20.25;;;14.30;;
9834;SDS011;4956;50.996;13.716;2022-10-22T01:18:23;9.50;;;6.55;;
9834;SDS011;4956;50.996;13.716;2022-10-22T01:21:55;6.72;;;5.25;;
9834;SDS011;4956;50.996;13.716;2022-10-22T01:32:14;5.25;;;3.80;;
9834;SDS011;4956;50.996;13.716;2022-10-22T01:35:38;3.80;;;3.10;;
9834;SDS011;4956;50.996;13.716;2022-10-22T01:39:00;4.20;;;3.58;;
9834;SDS011;4956;50.996;13.716;2022-10-22T01:42:21;5.20;;;3.75;;
9834;SDS011;4956;50.996;13.716;2022-10-22T01:45:42;19.60;;;13.40;;
9834;SDS011;4956;50.996;13.716;2022-10-22T01:49:16;33.78;;;21.67;;
9834;SDS011;4956;50.996;13.716;2022-10-22T02:00:25;32.03;;;20.70;;
9834;SDS011;4956;50.996;13.716;2022-10-22T02:03:51;27.40;;;18.55;;
9834;SDS011;4956;50.996;13.716;2022-10-22T02:07:16;27.00;;;19.13;;
9834;SDS011;4956;50.996;13.716;2022-10-22T02:10:39;32.15;;;19.80;;
9834;SDS011;4956;50.996;13.716;2022-10-22T02:14:02;31.88;;;21.40;;
9834;SDS011;4956;50.996;13.716;2022-10-22T02:17:23;33.20;;;21.80;;
9834;SDS011;4956;50.996;13.716;2022-10-22T02:20:44;34.78;;;22.15;;
9834;SDS011;4956;50.996;13.716;2022-10-22T02:24:04;34.88;;;22.92;;
9834;SDS011;4956;50.996;13.716;2022-10-22T02:27:32;37.08;;;23.02;;
9834;SDS011;4956;50.996;13.716;2022-10-22T02:30:57;36.10;;;23.17;;
9834;SDS011;4956;50.996;13.716;2022-10-22T02:34:21;37.17;;;23.38;;
9834;SDS011;4956;50.996;13.716;2022-10-22T02:37:43;39.00;;;24.23;;
9834;SDS011;4956;50.996;13.716;2022-10-22T02:41:03;35.83;;;22.33;;
9834;SDS011;4956;50.996;13.716;2022-10-22T02:44:24;36.90;;;23.52;;
9834;SDS011;4956;50.996;13.716;2022-10-22T02:47:44;35.42;;;23.40;;
9834;SDS011;4956;50.996;13.716;2022-10-22T02:51:05;38.45;;;24.25;;
9834;SDS011;4956;50.996;13.716;2022-10-22T02:54:25;37.70;;;24.17;;
9834;SDS011;4956;50.996;13.716;2022-10-22T02:57:46;37.67;;;23.35;;
9834;SDS011;4956;50.996;13.716;2022-10-22T03:01:06;37.08;;;23.13;;
9834;SDS011;4956;50.996;13.716;2022-10-22T03:04:26;35.10;;;22.50;;
9834;SDS011;4956;50.996;13.716;2022-10-22T03:07:47;31.88;;;20.80;;
9834;SDS011;4956;50.996;13.716;2022-10-22T03:11:07;29.65;;;20.02;;
9834;SDS011;4956;50.996;13.716;2022-10-22T03:14:27;31.83;;;20.55;;
9834;SDS011;4956;50.996;13.716;2022-10-22T03:17:48;31.85;;;21.02;;
9834;SDS011;4956;50.996;13.716;2022-10-22T03:21:12;32.25;;;20.73;;
9834;SDS011;4956;50.996;13.716;2022-10-22T03:24:46;31.33;;;21.00;;
9834;SDS011;4956;50.996;13.716;2022-10-22T03:28:08;27.83;;;17.75;;
9834;SDS011;4956;50.996;13.716;2022-10-22T03:31:30;24.63;;;16.40;;
9834;SDS011;4956;50.996;13.716;2022-10-22T03:34:50;22.73;;;13.35;;
9834;SDS011;4956;50.996;13.716;2022-10-22T03:38:10;21.13;;;12.38;;
9834;SDS011;4956;50.996;13.716;2022-10-22T03:41:31;16.58;;;11.02;;
9834;SDS011;4956;50.996;13.716;2022-10-22T03:44:52;15.13;;;11.00;;
9834;SDS011;4956;50.996;13.716;2022-10-22T03:48:12;28.88;;;19.17;;
9834;SDS011;4956;50.996;13.716;2022-10-22T03:51:32;28.73;;;18.80;;
9834;SDS011;4956;50.996;13.716;2022-10-22T03:54:53;27.25;;;18.45;;
9834;SDS011;4956;50.996;13.716;2022-10-22T03:58:13;27.80;;;17.35;;
9834;SDS011;4956;50.996;13.716;2022-10-22T04:01:33;25.00;;;17.25;;
9834;SDS011;4956;50.996;13.716;2022-10-22T04:04:54;17.40;;;12.90;;
9834;SDS011;4956;50.996;13.716;2022-10-22T04:08:14;19.60;;;14.13;;
9834;SDS011;4956;50.996;13.716;2022-10-22T04:11:35;29.13;;;18.60;;
9834;SDS011;4956;50.996;13.716;2022-10-22T04:14:55;33.45;;;20.77;;
9834;SDS011;4956;50.996;13.716;2022-10-22T04:18:15;30.73;;;18.52;;
9834;SDS011;4956;50.996;13.716;2022-10-22T04:21:36;28.65;;;18.02;;
9834;SDS011;4956;50.996;13.716;2022-10-22T04:24:57;28.48;;;17.98;;
9834;SDS011;4956;50.996;13.716;2022-10-22T04:28:17;24.10;;;15.98;;
9834;SDS011;4956;50.996;13.716;2022-10-22T04:31:37;21.80;;;15.65;;
9834;SDS011;4956;50.996;13.716;2022-10-22T04:34:58;20.20;;;13.85;;
9834;SDS011;4956;50.996;13.716;2022-10-22T04:38:18;17.55;;;12.25;;
9834;SDS011;4956;50.996;13.716;2022-10-22T04:41:38;18.60;;;11.98;;
9834;SDS011;4956;50.996;13.716;2022-10-22T04:44:59;15.20;;;11.48;;
9834;SDS011;4956;50.996;13.716;2022-10-22T04:48:19;20.92;;;13.30;;
9834;SDS011;4956;50.996;13.716;2022-10-22T04:51:39;28.98;;;19.58;;
9834;SDS011;4956;50.996;13.716;2022-10-22T04:55:00;31.13;;;20.48;;
9834;SDS011;4956;50.996;13.716;2022-10-22T04:58:21;29.85;;;19.92;;
9834;SDS011;4956;50.996;13.716;2022-10-22T05:01:42;31.05;;;20.27;;
9834;SDS011;4956;50.996;13.716;2022-10-22T05:05:03;29.00;;;17.73;;
9834;SDS011;4956;50.996;13.716;2022-10-22T05:08:23;28.83;;;17.60;;
9834;SDS011;4956;50.996;13.716;2022-10-22T05:11:44;29.30;;;19.70;;
9834;SDS011;4956;50.996;13.716;2022-10-22T05:15:07;31.77;;;19.98;;
9834;SDS011;4956;50.996;13.716;2022-10-22T05:18:28;32.05;;;20.70;;
9834;SDS011;4956;50.996;13.716;2022-10-22T05:21:49;28.80;;;19.23;;
9834;SDS011;4956;50.996;13.716;2022-10-22T05:25:12;28.23;;;18.88;;
9834;SDS011;4956;50.996;13.716;2022-10-22T05:28:33;29.73;;;18.45;;
9834;SDS011;4956;50.996;13.716;2022-10-22T05:31:54;26.67;;;19.13;;
9834;SDS011;4956;50.996;13.716;2022-10-22T05:35:15;23.45;;;16.05;;
9834;SDS011;4956;50.996;13.716;2022-10-22T05:38:35;16.13;;;11.98;;
9834;SDS011;4956;50.996;13.716;2022-10-22T05:41:56;12.57;;;9.30;;
9834;SDS011;4956;50.996;13.716;2022-10-22T05:45:17;11.50;;;7.90;;
9834;SDS011;4956;50.996;13.716;2022-10-22T05:48:37;13.75;;;8.45;;
9834;SDS011;4956;50.996;13.716;2022-10-22T05:51:58;12.57;;;8.30;;
9834;SDS011;4956;50.996;13.716;2022-10-22T05:55:18;10.48;;;7.85;;
9834;SDS011;4956;50.996;13.716;2022-10-22T05:58:39;11.77;;;7.60;;
9834;SDS011;4956;50.996;13.716;2022-10-22T06:02:00;9.35;;;7.30;;
9834;SDS011;4956;50.996;13.716;2022-10-22T06:05:20;21.27;;;13.88;;
9834;SDS011;4956;50.996;13.716;2022-10-22T06:08:41;30.38;;;19.38;;
9834;SDS011;4956;50.996;13.716;2022-10-22T06:12:01;27.85;;;18.58;;
9834;SDS011;4956;50.996;13.716;2022-10-22T06:15:22;31.20;;;19.77;;
9834;SDS011;4956;50.996;13.716;2022-10-22T06:18:42;28.85;;;19.52;;
9834;SDS011;4956;50.996;13.716;2022-10-22T06:22:03;28.35;;;19.60;;
9834;SDS011;4956;50.996;13.716;2022-10-22T06:25:24;29.00;;;20.23;;
9834;SDS011;4956;50.996;13.716;2022-10-22T06:28:44;27.15;;;19.13;;
9834;SDS011;4956;50.996;13.716;2022-10-22T06:32:04;28.98;;;19.55;;
9834;SDS011;4956;50.996;13.716;2022-10-22T06:35:25;33.78;;;19.92;;
9834;SDS011;4956;50.996;13.716;2022-10-22T06:38:45;28.48;;;19.27;;
9834;SDS011;4956;50.996;13.716;2022-10-22T06:42:05;27.83;;;18.00;;
9834;SDS011;4956;50.996;13.716;2022-10-22T06:45:27;24.73;;;16.85;;
9834;SDS011;4956;50.996;13.716;2022-10-22T06:48:55;24.95;;;16.85;;
9834;SDS011;4956;50.996;13.716;2022-10-22T06:52:17;29.00;;;19.25;;
9834;SDS011;4956;50.996;13.716;2022-10-22T06:55:37;28.92;;;19.52;;
9834;SDS011;4956;50.996;13.716;2022-10-22T06:58:58;32.13;;;21.92;;
9834;SDS011;4956;50.996;13.716;2022-10-22T07:02:18;31.27;;;20.55;;
9834;SDS011;4956;50.996;13.716;2022-10-22T07:05:38;32.17;;;20.60;;
9834;SDS011;4956;50.996;13.716;2022-10-22T07:08:59;31.13;;;20.63;;
9834;SDS011;4956;50.996;13.716;2022-10-22T07:12:20;30.73;;;20.13;;
9834;SDS011;4956;50.996;13.716;2022-10-22T07:15:40;29.65;;;20.35;;
9834;SDS011;4956;50.996;13.716;2022-10-22T07:19:01;31.45;;;20.85;;
9834;SDS011;4956;50.996;13.716;2022-10-22T07:22:22;33.50;;;22.63;;
9834;SDS011;4956;50.996;13.716;2022-10-22T07:25:42;33.85;;;21.63;;
9834;SDS011;4956;50.996;13.716;2022-10-22T07:29:03;35.97;;;24.42;;
9834;SDS011;4956;50.996;13.716;2022-10-22T07:32:23;34.78;;;24.23;;
9834;SDS011;4956;50.996;13.716;2022-10-22T07:35:44;35.05;;;25.67;;
9834;SDS011;4956;50.996;13.716;2022-10-22T07:39:04;18.67;;;13.70;;
9834;SDS011;4956;50.996;13.716;2022-10-22T07:42:24;8.85;;;6.22;;
9834;SDS011;4956;50.996;13.716;2022-10-22T07:45:45;8.55;;;5.15;;
9834;SDS011;4956;50.996;13.716;2022-10-22T07:49:08;7.18;;;4.47;;
9834;SDS011;4956;50.996;13.716;2022-10-22T07:52:28;5.05;;;3.65;;
9834;SDS011;4956;50.996;13.716;2022-10-22T07:55:49;5.85;;;3.80;;
9834;SDS011;4956;50.996;13.716;2022-10-22T07:59:10;6.28;;;3.03;;
9834;SDS011;4956;50.996;13.716;2022-10-22T08:02:30;4.63;;;3.00;;
9834;SDS011;4956;50.996;13.716;2022-10-22T08:05:50;3.55;;;2.45;;
9834;SDS011;4956;50.996;13.716;2022-10-22T08:09:11;5.53;;;2.60;;
9834;SDS011;4956;50.996;13.716;2022-10-22T08:12:32;3.75;;;2.35;;
9834;SDS011;4956;50.996;13.716;2022-10-22T08:15:52;2.40;;;1.90;;
9834;SDS011;4956;50.996;13.716;2022-10-22T08:19:12;2.17;;;1.80;;
9834;SDS011;4956;50.996;13.716;2022-10-22T08:22:37;2.55;;;1.80;;
9834;SDS011;4956;50.996;13.716;2022-10-22T08:25:58;3.65;;;1.80;;
9834;SDS011;4956;50.996;13.716;2022-10-22T08:29:18;3.20;;;1.70;;
9834;SDS011;4956;50.996;13.716;2022-10-22T08:32:40;2.95;;;1.40;;
9834;SDS011;4956;50.996;13.716;2022-10-22T08:36:01;2.28;;;1.40;;
9834;SDS011;4956;50.996;13.716;2022-10-22T08:39:21;7.95;;;3.97;;
9834;SDS011;4956;50.996;13.716;2022-10-22T08:50:16;18.85;;;11.63;;
9834;SDS011;4956;50.996;13.716;2022-10-22T09:04:32;4.40;;;2.80;;
9834;SDS011;4956;50.996;13.716;2022-10-22T09:07:56;5.90;;;3.40;;
9834;SDS011;4956;50.996;13.716;2022-10-22T09:14:50;2.75;;;2.20;;
9834;SDS011;4956;50.996;13.716;2022-10-22T09:25:41;1.85;;;1.33;;
9834;SDS011;4956;50.996;13.716;2022-10-22T09:29:04;2.03;;;1.42;;
9834;SDS011;4956;50.996;13.716;2022-10-22T09:32:25;1.48;;;1.27;;
9834;SDS011;4956;50.996;13.716;2022-10-22T09:39:21;1.90;;;1.70;;
9834;SDS011;4956;50.996;13.716;2022-10-22T09:42:46;2.67;;;1.25;;
9834;SDS011;4956;50.996;13.716;2022-10-22T09:46:07;2.28;;;1.70;;
9834;SDS011;4956;50.996;13.716;2022-10-22T09:49:37;2.05;;;1.40;;
9834;SDS011;4956;50.996;13.716;2022-10-22T09:56:21;1.92;;;1.42;;
9834;SDS011;4956;50.996;13.716;2022-10-22T09:59:46;2.17;;;1.48;;
9834;SDS011;4956;50.996;13.716;2022-10-22T10:03:14;5.72;;;2.08;;
9834;SDS011;4956;50.996;13.716;2022-10-22T10:06:38;3.90;;;2.13;;
9834;SDS011;4956;50.996;13.716;2022-10-22T10:10:00;2.03;;;1.50;;
9834;SDS011;4956;50.996;13.716;2022-10-22T10:25:10;1.60;;;1.50;;
9834;SDS011;4956;50.996;13.716;2022-10-22T10:43:54;2.38;;;1.30;;
9834;SDS011;4956;50.996;13.716;2022-10-22T10:47:30;1.90;;;1.30;;
9834;SDS011;4956;50.996;13.716;2022-10-22T10:51:13;1.48;;;1.10;;
9834;SDS011;4956;50.996;13.716;2022-10-22T10:58:32;1.10;;;1.00;;
9834;SDS011;4956;50.996;13.716;2022-10-22T11:02:01;1.05;;;0.90;;
9834;SDS011;4956;50.996;13.716;2022-10-22T11:09:55;3.13;;;1.15;;
9834;SDS011;4956;50.996;13.716;2022-10-22T11:13:44;0.93;;;0.70;;
9834;SDS011;4956;50.996;13.716;2022-10-22T11:16:45;1.42;;;0.85;;
9834;SDS011;4956;50.996;13.716;2022-10-22T11:20:17;0.88;;;0.80;;
9834;SDS011;4956;50.996;13.716;2022-10-22T11:24:24;0.93;;;0.90;;
9834;SDS011;4956;50.996;13.716;2022-10-22T11:27:48;1.33;;;1.00;;
9834;SDS011;4956;50.996;13.716;2022-10-22T11:31:12;0.90;;;0.80;;
9834;SDS011;4956;50.996;13.716;2022-10-22T11:34:37;0.93;;;0.80;;
9834;SDS011;4956;50.996;13.716;2022-10-22T11:38:04;1.70;;;1.10;;
9834;SDS011;4956;50.996;13.716;2022-10-22T11:41:26;1.15;;;0.90;;
9834;SDS011;4956;50.996;13.716;2022-10-22T11:45:00;1.10;;;1.00;;
9834;SDS011;4956;50.996;13.716;2022-10-22T11:48:25;1.77;;;1.05;;
9834;SDS011;4956;50.996;13.716;2022-10-22T11:51:47;1.50;;;0.90;;
9834;SDS011;4956;50.996;13.716;2022-10-22T11:55:29;1.58;;;1.05;;
9834;SDS011;4956;50.996;13.716;2022-10-22T11:58:53;1.60;;;1.10;;
9834;SDS011;4956;50.996;13.716;2022-10-22T12:02:23;1.17;;;1.05;;
9834;SDS011;4956;50.996;13.716;2022-10-22T12:09:34;1.08;;;0.80;;
9834;SDS011;4956;50.996;13.716;2022-10-22T12:13:09;0.95;;;0.85;;
9834;SDS011;4956;50.996;13.716;2022-10-22T12:19:59;1.03;;;0.80;;
9834;SDS011;4956;50.996;13.716;2022-10-22T12:23:23;1.27;;;1.17;;
9834;SDS011;4956;50.996;13.716;2022-10-22T12:26:48;1.30;;;0.60;;
9834;SDS011;4956;50.996;13.716;2022-10-22T12:30:21;1.00;;;0.80;;
9834;SDS011;4956;50.996;13.716;2022-10-22T12:33:44;1.27;;;0.80;;
9834;SDS011;4956;50.996;13.716;2022-10-22T12:37:04;1.42;;;0.90;;
9834;SDS011;4956;50.996;13.716;2022-10-22T12:40:28;1.50;;;0.80;;
9834;SDS011;4956;50.996;13.716;2022-10-22T12:43:56;1.05;;;0.80;;
9834;SDS011;4956;50.996;13.716;2022-10-22T12:47:17;1.25;;;0.80;;
9834;SDS011;4956;50.996;13.716;2022-10-22T12:50:39;1.38;;;0.90;;
9834;SDS011;4956;50.996;13.716;2022-10-22T12:54:06;1.20;;;0.85;;
9834;SDS011;4956;50.996;13.716;2022-10-22T12:57:28;0.95;;;0.80;;
9834;SDS011;4956;50.996;13.716;2022-10-22T13:00:51;1.23;;;0.90;;
9834;SDS011;4956;50.996;13.716;2022-10-22T13:04:20;1.52;;;1.05;;
9834;SDS011;4956;50.996;13.716;2022-10-22T13:07:54;1.08;;;0.80;;
9834;SDS011;4956;50.996;13.716;2022-10-22T13:11:38;0.80;;;0.80;;
9834;SDS011;4956;50.996;13.716;2022-10-22T13:18:39;0.68;;;0.60;;
9834;SDS011;4956;50.996;13.716;2022-10-22T13:22:00;1.48;;;0.68;;
9834;SDS011;4956;50.996;13.716;2022-10-22T13:25:22;2.50;;;0.88;;
9834;SDS011;4956;50.996;13.716;2022-10-22T13:28:48;1.30;;;0.80;;
9834;SDS011;4956;50.996;13.716;2022-10-22T13:36:00;1.65;;;0.90;;
9834;SDS011;4956;50.996;13.716;2022-10-22T13:39:22;1.42;;;0.90;;
9834;SDS011;4956;50.996;13.716;2022-10-22T13:42:45;1.02;;;0.77;;
9834;SDS011;4956;50.996;13.716;2022-10-22T13:46:07;0.80;;;0.80;;
9834;SDS011;4956;50.996;13.716;2022-10-22T13:49:28;0.73;;;0.60;;
9834;SDS011;4956;50.996;13.716;2022-10-22T13:52:50;1.15;;;0.70;;
9834;SDS011;4956;50.996;13.716;2022-10-22T13:56:12;3.03;;;0.73;;
9834;SDS011;4956;50.996;13.716;2022-10-22T13:59:37;0.90;;;0.55;;
9834;SDS011;4956;50.996;13.716;2022-10-22T14:02:57;2.60;;;0.60;;
9834;SDS011;4956;50.996;13.716;2022-10-22T14:06:19;1.38;;;0.80;;
9834;SDS011;4956;50.996;13.716;2022-10-22T14:09:40;0.80;;;0.80;;
9834;SDS011;4956;50.996;13.716;2022-10-22T14:13:01;0.60;;;0.60;;
9834;SDS011;4956;50.996;13.716;2022-10-22T14:16:22;0.75;;;0.60;;
9834;SDS011;4956;50.996;13.716;2022-10-22T14:19:45;1.38;;;0.80;;
9834;SDS011;4956;50.996;13.716;2022-10-22T14:23:10;1.38;;;0.73;;
9834;SDS011;4956;50.996;13.716;2022-10-22T14:26:33;1.08;;;0.80;;
9834;SDS011;4956;50.996;13.716;2022-10-22T14:29:54;1.02;;;0.80;;
9834;SDS011;4956;50.996;13.716;2022-10-22T14:36:35;3.03;;;0.80;;
9834;SDS011;4956;50.996;13.716;2022-10-22T14:39:55;2.30;;;0.80;;
9834;SDS011;4956;50.996;13.716;2022-10-22T14:43:21;1.20;;;0.98;;
9834;SDS011;4956;50.996;13.716;2022-10-22T14:46:43;1.90;;;0.90;;
9834;SDS011;4956;50.996;13.716;2022-10-22T14:50:04;1.17;;;1.08;;
9834;SDS011;4956;50.996;13.716;2022-10-22T14:53:25;1.33;;;0.90;;
9834;SDS011;4956;50.996;13.716;2022-10-22T14:56:46;1.63;;;0.90;;
9834;SDS011;4956;50.996;13.716;2022-10-22T15:00:07;1.25;;;0.90;;
9834;SDS011;4956;50.996;13.716;2022-10-22T15:03:30;1.42;;;1.10;;
9834;SDS011;4956;50.996;13.716;2022-10-22T15:06:50;2.55;;;1.40;;
9834;SDS011;4956;50.996;13.716;2022-10-22T15:10:15;2.00;;;1.20;;
9834;SDS011;4956;50.996;13.716;2022-10-22T15:13:35;1.30;;;1.00;;
9834;SDS011;4956;50.996;13.716;2022-10-22T15:16:56;1.40;;;0.93;;
9834;SDS011;4956;50.996;13.716;2022-10-22T15:20:17;3.35;;;2.90;;
9834;SDS011;4956;50.996;13.716;2022-10-22T15:23:38;3.45;;;2.90;;
9834;SDS011;4956;50.996;13.716;2022-10-22T15:26:59;2.75;;;2.05;;
9834;SDS011;4956;50.996;13.716;2022-10-22T15:30:20;1.73;;;1.55;;
9834;SDS011;4956;50.996;13.716;2022-10-22T15:33:41;1.35;;;1.25;;
9834;SDS011;4956;50.996;13.716;2022-10-22T15:37:03;1.40;;;1.10;;
9834;SDS011;4956;50.996;13.716;2022-10-22T15:40:25;3.58;;;1.40;;
9834;SDS011;4956;50.996;13.716;2022-10-22T15:43:46;2.20;;;1.73;;
9834;SDS011;4956;50.996;13.716;2022-10-22T15:47:07;1.95;;;1.55;;
9834;SDS011;4956;50.996;13.716;2022-10-22T15:50:28;3.33;;;1.60;;
9834;SDS011;4956;50.996;13.716;2022-10-22T15:53:55;2.15;;;1.52;;
9834;SDS011;4956;50.996;13.716;2022-10-22T15:57:16;2.25;;;1.65;;
9834;SDS011;4956;50.996;13.716;2022-10-22T16:00:37;2.42;;;1.80;;
9834;SDS011;4956;50.996;13.716;2022-10-22T16:03:57;2.13;;;1.73;;
9834;SDS011;4956;50.996;13.716;2022-10-22T16:07:24;3.65;;;2.08;;
9834;SDS011;4956;50.996;13.716;2022-10-22T16:10:45;2.30;;;1.88;;
9834;SDS011;4956;50.996;13.716;2022-10-22T16:14:08;3.10;;;1.60;;
9834;SDS011;4956;50.996;13.716;2022-10-22T16:17:29;1.83;;;1.58;;
9834;SDS011;4956;50.996;13.716;2022-10-22T16:20:50;2.03;;;1.40;;
9834;SDS011;4956;50.996;13.716;2022-10-22T16:24:10;2.80;;;1.40;;
9834;SDS011;4956;50.996;13.716;2022-10-22T16:27:30;1.48;;;1.20;;
9834;SDS011;4956;50.996;13.716;2022-10-22T16:30:51;1.60;;;1.42;;
9834;SDS011;4956;50.996;13.716;2022-10-22T16:34:11;1.83;;;1.63;;
9834;SDS011;4956;50.996;13.716;2022-10-22T16:37:31;2.70;;;1.58;;
9834;SDS011;4956;50.996;13.716;2022-10-22T16:40:52;3.30;;;1.92;;
9834;SDS011;4956;50.996;13.716;2022-10-22T16:44:12;2.00;;;1.70;;
9834;SDS011;4956;50.996;13.716;2022-10-22T16:47:33;1.60;;;1.40;;
9834;SDS011;4956;50.996;13.716;2022-10-22T16:50:53;3.63;;;1.58;;
9834;SDS011;4956;50.996;13.716;2022-10-22T16:54:13;3.08;;;1.27;;
9834;SDS011;4956;50.996;13.716;2022-10-22T16:57:34;2.13;;;1.55;;
9834;SDS011;4956;50.996;13.716;2022-10-22T17:00:55;1.70;;;1.30;;
9834;SDS011;4956;50.996;13.716;2022-10-22T17:04:15;1.40;;;1.27;;
9834;SDS011;4956;50.996;13.716;2022-10-22T17:07:36;2.42;;;1.60;;
9834;SDS011;4956;50.996;13.716;2022-10-22T17:10:56;2.95;;;1.75;;
9834;SDS011;4956;50.996;13.716;2022-10-22T17:14:17;3.13;;;2.10;;
9834;SDS011;4956;50.996;13.716;2022-10-22T17:17:37;2.88;;;2.13;;
9834;SDS011;4956;50.996;13.716;2022-10-22T17:20:58;2.97;;;2.40;;
9834;SDS011;4956;50.996;13.716;2022-10-22T17:24:18;3.67;;;2.42;;
9834;SDS011;4956;50.996;13.716;2022-10-22T17:27:39;3.42;;;2.90;;
9834;SDS011;4956;50.996;13.716;2022-10-22T17:31:04;4.63;;;3.08;;
9834;SDS011;4956;50.996;13.716;2022-10-22T17:34:25;5.40;;;3.00;;
9834;SDS011;4956;50.996;13.716;2022-10-22T17:37:48;4.25;;;2.40;;
9834;SDS011;4956;50.996;13.716;2022-10-22T17:41:09;3.08;;;2.25;;
9834;SDS011;4956;50.996;13.716;2022-10-22T17:44:36;4.60;;;2.60;;
9834;SDS011;4956;50.996;13.716;2022-10-22T17:47:57;3.45;;;2.22;;
9834;SDS011;4956;50.996;13.716;2022-10-22T17:51:17;4.72;;;2.67;;
9834;SDS011;4956;50.996;13.716;2022-10-22T17:54:39;3.88;;;3.13;;
9834;SDS011;4956;50.996;13.716;2022-10-22T17:58:00;5.38;;;2.58;;
9834;SDS011;4956;50.996;13.716;2022-10-22T18:01:22;3.20;;;2.08;;
9834;SDS011;4956;50.996;13.716;2022-10-22T18:04:43;2.53;;;2.30;;
9834;SDS011;4956;50.996;13.716;2022-10-22T18:08:04;4.43;;;2.70;;
9834;SDS011;4956;50.996;13.716;2022-10-22T18:11:26;7.75;;;4.53;;
9834;SDS011;4956;50.996;13.716;2022-10-22T18:14:46;5.43;;;3.58;;
9834;SDS011;4956;50.996;13.716;2022-10-22T18:18:06;3.30;;;2.72;;
9834;SDS011;4956;50.996;13.716;2022-10-22T18:21:27;3.63;;;2.72;;
9834;SDS011;4956;50.996;13.716;2022-10-22T18:24:48;5.47;;;3.10;;
9834;SDS011;4956;50.996;13.716;2022-10-22T18:28:12;5.93;;;2.70;;
9834;SDS011;4956;50.996;13.716;2022-10-22T18:31:33;5.80;;;2.47;;
9834;SDS011;4956;50.996;13.716;2022-10-22T18:34:53;2.95;;;2.22;;
9834;SDS011;4956;50.996;13.716;2022-10-22T18:38:13;4.75;;;2.58;;
9834;SDS011;4956;50.996;13.716;2022-10-22T18:41:34;2.97;;;2.17;;
9834;SDS011;4956;50.996;13.716;2022-10-22T18:44:54;6.95;;;2.80;;
9834;SDS011;4956;50.996;13.716;2022-10-22T18:48:16;4.75;;;2.50;;
9834;SDS011;4956;50.996;13.716;2022-10-22T18:51:38;3.85;;;2.50;;
9834;SDS011;4956;50.996;13.716;2022-10-22T18:54:58;2.63;;;2.35;;
9834;SDS011;4956;50.996;13.716;2022-10-22T18:58:19;3.17;;;2.40;;
9834;SDS011;4956;50.996;13.716;2022-10-22T19:01:39;4.45;;;2.65;;
9834;SDS011;4956;50.996;13.716;2022-10-22T19:04:59;4.15;;;2.67;;
9834;SDS011;4956;50.996;13.716;2022-10-22T19:08:20;4.07;;;2.35;;
9834;SDS011;4956;50.996;13.716;2022-10-22T19:11:41;3.92;;;2.60;;
9834;SDS011;4956;50.996;13.716;2022-10-22T19:15:03;4.72;;;2.80;;
9834;SDS011;4956;50.996;13.716;2022-10-22T19:18:26;3.88;;;2.63;;
9834;SDS011;4956;50.996;13.716;2022-10-22T19:21:47;3.55;;;2.45;;
9834;SDS011;4956;50.996;13.716;2022-10-22T19:25:10;4.18;;;2.38;;
9834;SDS011;4956;50.996;13.716;2022-10-22T19:28:32;6.13;;;2.38;;
9834;SDS011;4956;50.996;13.716;2022-10-22T19:31:52;3.38;;;2.50;;
9834;SDS011;4956;50.996;13.716;2022-10-22T19:35:14;4.65;;;2.40;;
9834;SDS011;4956;50.996;13.716;2022-10-22T19:38:37;4.03;;;2.55;;
9834;SDS011;4956;50.996;13.716;2022-10-22T19:42:01;3.80;;;2.60;;
9834;SDS011;4956;50.996;13.716;2022-10-22T19:45:23;4.20;;;2.42;;
9834;SDS011;4956;50.996;13.716;2022-10-22T19:48:44;4.00;;;2.63;;
9834;SDS011;4956;50.996;13.716;2022-10-22T19:52:04;5.30;;;2.08;;
9834;SDS011;4956;50.996;13.716;2022-10-22T19:55:25;2.88;;;2.28;;
9834;SDS011;4956;50.996;13.716;2022-10-22T19:58:45;4.55;;;2.05;;
9834;SDS011;4956;50.996;13.716;2022-10-22T20:02:07;3.60;;;2.13;;
9834;SDS011;4956;50.996;13.716;2022-10-22T20:05:30;3.67;;;2.15;;
9834;SDS011;4956;50.996;13.716;2022-10-22T20:08:51;2.92;;;1.98;;
9834;SDS011;4956;50.996;13.716;2022-10-22T20:12:11;4.45;;;2.45;;
9834;SDS011;4956;50.996;13.716;2022-10-22T20:15:32;2.78;;;2.22;;
9834;SDS011;4956;50.996;13.716;2022-10-22T20:18:52;4.15;;;2.10;;
9834;SDS011;4956;50.996;13.716;2022-10-22T20:22:13;2.35;;;1.92;;
9834;SDS011;4956;50.996;13.716;2022-10-22T20:25:34;3.35;;;2.25;;
9834;SDS011;4956;50.996;13.716;2022-10-22T20:28:55;2.83;;;2.10;;
9834;SDS011;4956;50.996;13.716;2022-10-22T20:32:16;4.10;;;2.05;;
9834;SDS011;4956;50.996;13.716;2022-10-22T20:35:36;3.38;;;2.10;;
9834;SDS011;4956;50.996;13.716;2022-10-22T20:38:58;3.38;;;2.35;;
9834;SDS011;4956;50.996;13.716;2022-10-22T20:42:20;5.03;;;2.70;;
9834;SDS011;4956;50.996;13.716;2022-10-22T20:45:40;4.20;;;2.78;;
9834;SDS011;4956;50.996;13.716;2022-10-22T20:49:04;6.35;;;4.07;;
9834;SDS011;4956;50.996;13.716;2022-10-22T20:52:26;4.32;;;3.30;;
9834;SDS011;4956;50.996;13.716;2022-10-22T20:55:47;5.75;;;2.10;;
9834;SDS011;4956;50.996;13.716;2022-10-22T20:59:09;3.35;;;2.50;;
9834;SDS011;4956;50.996;13.716;2022-10-22T21:02:32;2.65;;;2.10;;
9834;SDS011;4956;50.996;13.716;2022-10-22T21:05:53;3.45;;;2.10;;
9834;SDS011;4956;50.996;13.716;2022-10-22T21:09:14;2.95;;;2.20;;
9834;SDS011;4956;50.996;13.716;2022-10-22T21:12:35;4.70;;;2.10;;
9834;SDS011;4956;50.996;13.716;2022-10-22T21:16:10;4.03;;;2.20;;
9834;SDS011;4956;50.996;13.716;2022-10-22T21:19:31;5.07;;;2.47;;
9834;SDS011;4956;50.996;13.716;2022-10-22T21:22:51;4.18;;;2.22;;
9834;SDS011;4956;50.996;13.716;2022-10-22T21:26:12;3.80;;;2.15;;
9834;SDS011;4956;50.996;13.716;2022-10-22T21:29:32;5.57;;;2.28;;
9834;SDS011;4956;50.996;13.716;2022-10-22T21:32:53;2.83;;;1.88;;
9834;SDS011;4956;50.996;13.716;2022-10-22T21:36:15;3.50;;;1.95;;
9834;SDS011;4956;50.996;13.716;2022-10-22T21:39:36;3.55;;;1.80;;
9834;SDS011;4956;50.996;13.716;2022-10-22T21:42:56;2.95;;;1.77;;
9834;SDS011;4956;50.996;13.716;2022-10-22T21:46:20;5.57;;;2.05;;
9834;SDS011;4956;50.996;13.716;2022-10-22T21:49:42;3.40;;;1.95;;
9834;SDS011;4956;50.996;13.716;2022-10-22T21:53:02;5.00;;;1.88;;
9834;SDS011;4956;50.996;13.716;2022-10-22T21:56:24;2.05;;;1.70;;
9834;SDS011;4956;50.996;13.716;2022-10-22T21:59:46;3.20;;;1.58;;
9834;SDS011;4956;50.996;13.716;2022-10-22T22:03:07;2.47;;;1.95;;
9834;SDS011;4956;50.996;13.716;2022-10-22T22:06:28;2.28;;;1.75;;
9834;SDS011;4956;50.996;13.716;2022-10-22T22:09:49;3.15;;;1.80;;
9834;SDS011;4956;50.996;13.716;2022-10-22T22:13:09;2.25;;;1.88;;
9834;SDS011;4956;50.996;13.716;2022-10-22T22:16:30;3.03;;;1.50;;